sensor_id;sensor_type;location;lat;lon;timestamp;temperature;humidity
57664;DHT22;43493;53.098;6.064;2023-06-26T00:00:20;23.50;99.90
57664;DHT22;43493;53.098;6.064;2023-06-26T00:02:46;23.50;99.90
57664;DHT22;43493;53.098;6.064;2023-06-26T00:05:11;23.50;99.90
57664;DHT22;43493;53.098;6.064;2023-06-26T00:07:39;23.40;99.90
57664;DHT22;43493;53.098;6.064;2023-06-26T00:10:05;23.50;99.90
57664;DHT22;43493;53.098;6.064;2023-06-26T00:12:31;23.40;99.90
57664;DHT22;43493;53.098;6.064;2023-06-26T00:14:57;23.40;99.90
57664;DHT22;43493;53.098;6.064;2023-06-26T00:17:23;23.40;99.90
57664;DHT22;43493;53.098;6.064;2023-06-26T00:19:50;23.40;99.90
57664;DHT22;43493;53.098;6.064;2023-06-26T00:22:16;23.40;99.90
57664;DHT22;43493;53.098;6.064;2023-06-26T00:24:41;23.40;99.90
57664;DHT22;43493;53.098;6.064;2023-06-26T00:27:08;23.40;99.90
57664;DHT22;43493;53.098;6.064;2023-06-26T00:29:33;23.30;99.90
57664;DHT22;43493;53.098;6.064;2023-06-26T00:31:59;23.30;99.90
57664;DHT22;43493;53.098;6.064;2023-06-26T00:34:25;23.30;99.90
57664;DHT22;43493;53.098;6.064;2023-06-26T00:36:50;23.30;99.90
57664;DHT22;43493;53.098;6.064;2023-06-26T00:39:16;23.20;99.90
57664;DHT22;43493;53.098;6.064;2023-06-26T00:41:42;23.20;99.90
57664;DHT22;43493;53.098;6.064;2023-06-26T00:44:08;23.20;99.90
57664;DHT22;43493;53.098;6.064;2023-06-26T00:46:34;23.20;99.90
57664;DHT22;43493;53.098;6.064;2023-06-26T00:49:02;23.10;99.90
57664;DHT22;43493;53.098;6.064;2023-06-26T00:51:29;23.10;99.90
57664;DHT22;43493;53.098;6.064;2023-06-26T00:53:56;23.10;99.90
57664;DHT22;43493;53.098;6.064;2023-06-26T00:56:23;23.10;99.90
57664;DHT22;43493;53.098;6.064;2023-06-26T00:58:49;23.10;99.90
57664;DHT22;43493;53.098;6.064;2023-06-26T01:01:15;23.10;99.90
57664;DHT22;43493;53.098;6.064;2023-06-26T01:03:50;23.10;99.90
57664;DHT22;43493;53.098;6.064;2023-06-26T01:06:21;23.10;99.90
57664;DHT22;43493;53.098;6.064;2023-06-26T01:08:48;23.10;99.90
57664;DHT22;43493;53.098;6.064;2023-06-26T01:11:14;23.10;99.90
57664;DHT22;43493;53.098;6.064;2023-06-26T01:13:42;23.10;99.90
57664;DHT22;43493;53.098;6.064;2023-06-26T01:16:10;23.10;99.90
57664;DHT22;43493;53.098;6.064;2023-06-26T01:18:37;23.00;99.90
57664;DHT22;43493;53.098;6.064;2023-06-26T01:21:07;23.00;99.90
57664;DHT22;43493;53.098;6.064;2023-06-26T01:26:19;23.00;99.90
57664;DHT22;43493;53.098;6.064;2023-06-26T01:28:45;23.00;99.90
57664;DHT22;43493;53.098;6.064;2023-06-26T01:31:12;23.00;99.90
57664;DHT22;43493;53.098;6.064;2023-06-26T01:33:40;23.00;99.90
57664;DHT22;43493;53.098;6.064;2023-06-26T01:36:07;23.00;99.90
57664;DHT22;43493;53.098;6.064;2023-06-26T01:38:33;23.00;99.90
57664;DHT22;43493;53.098;6.064;2023-06-26T01:41:00;23.00;99.90
57664;DHT22;43493;53.098;6.064;2023-06-26T01:46:07;22.90;99.90
57664;DHT22;43493;53.098;6.064;2023-06-26T01:48:40;22.90;99.90
57664;DHT22;43493;53.098;6.064;2023-06-26T01:51:10;22.90;99.90
57664;DHT22;43493;53.098;6.064;2023-06-26T01:53:39;22.90;99.90
57664;DHT22;43493;53.098;6.064;2023-06-26T01:56:11;22.90;99.90
57664;DHT22;43493;53.098;6.064;2023-06-26T01:58:42;22.90;99.90
57664;DHT22;43493;53.098;6.064;2023-06-26T02:01:09;22.90;99.90
57664;DHT22;43493;53.098;6.064;2023-06-26T02:03:34;22.80;99.90
57664;DHT22;43493;53.098;6.064;2023-06-26T02:06:00;22.80;99.90
57664;DHT22;43493;53.098;6.064;2023-06-26T02:08:26;22.80;99.90
57664;DHT22;43493;53.098;6.064;2023-06-26T02:10:52;22.80;99.90
57664;DHT22;43493;53.098;6.064;2023-06-26T02:13:17;22.70;99.90
57664;DHT22;43493;53.098;6.064;2023-06-26T02:15:43;22.70;99.90
57664;DHT22;43493;53.098;6.064;2023-06-26T02:18:09;22.70;99.90
57664;DHT22;43493;53.098;6.064;2023-06-26T02:20:35;22.70;99.90
57664;DHT22;43493;53.098;6.064;2023-06-26T02:23:01;22.70;99.90
57664;DHT22;43493;53.098;6.064;2023-06-26T02:25:27;22.60;99.90
57664;DHT22;43493;53.098;6.064;2023-06-26T02:27:52;22.60;99.90
57664;DHT22;43493;53.098;6.064;2023-06-26T02:30:19;22.60;99.90
57664;DHT22;43493;53.098;6.064;2023-06-26T02:32:44;22.50;99.90
57664;DHT22;43493;53.098;6.064;2023-06-26T02:35:10;22.50;99.90
57664;DHT22;43493;53.098;6.064;2023-06-26T02:37:36;22.40;99.90
57664;DHT22;43493;53.098;6.064;2023-06-26T02:40:02;22.40;99.90
57664;DHT22;43493;53.098;6.064;2023-06-26T02:42:29;22.40;99.90
57664;DHT22;43493;53.098;6.064;2023-06-26T02:44:55;22.40;99.90
57664;DHT22;43493;53.098;6.064;2023-06-26T02:47:21;22.40;99.90
57664;DHT22;43493;53.098;6.064;2023-06-26T02:49:47;22.30;99.90
57664;DHT22;43493;53.098;6.064;2023-06-26T02:52:13;22.30;99.90
57664;DHT22;43493;53.098;6.064;2023-06-26T02:54:38;22.30;99.90
57664;DHT22;43493;53.098;6.064;2023-06-26T02:57:04;22.30;99.90
57664;DHT22;43493;53.098;6.064;2023-06-26T02:59:30;22.20;99.90
57664;DHT22;43493;53.098;6.064;2023-06-26T03:01:56;22.20;99.90
57664;DHT22;43493;53.098;6.064;2023-06-26T03:04:22;22.20;99.90
57664;DHT22;43493;53.098;6.064;2023-06-26T03:06:47;22.20;99.90
57664;DHT22;43493;53.098;6.064;2023-06-26T03:09:13;22.20;99.90
57664;DHT22;43493;53.098;6.064;2023-06-26T03:11:39;22.20;99.90
57664;DHT22;43493;53.098;6.064;2023-06-26T03:14:04;22.20;99.90
57664;DHT22;43493;53.098;6.064;2023-06-26T03:16:31;22.20;99.90
57664;DHT22;43493;53.098;6.064;2023-06-26T03:18:57;22.10;99.90
57664;DHT22;43493;53.098;6.064;2023-06-26T03:21:22;22.20;99.90
57664;DHT22;43493;53.098;6.064;2023-06-26T03:23:48;22.10;99.90
57664;DHT22;43493;53.098;6.064;2023-06-26T03:26:14;22.10;99.90
57664;DHT22;43493;53.098;6.064;2023-06-26T03:28:40;22.10;99.90
57664;DHT22;43493;53.098;6.064;2023-06-26T03:31:07;22.10;99.90
57664;DHT22;43493;53.098;6.064;2023-06-26T03:33:33;22.10;99.90
57664;DHT22;43493;53.098;6.064;2023-06-26T03:35:58;22.10;99.90
57664;DHT22;43493;53.098;6.064;2023-06-26T03:38:24;22.20;99.90
57664;DHT22;43493;53.098;6.064;2023-06-26T03:40:51;22.10;99.90
57664;DHT22;43493;53.098;6.064;2023-06-26T03:43:17;22.20;99.90
57664;DHT22;43493;53.098;6.064;2023-06-26T03:45:43;22.10;99.90
57664;DHT22;43493;53.098;6.064;2023-06-26T03:48:09;22.10;99.90
57664;DHT22;43493;53.098;6.064;2023-06-26T03:50:35;22.10;99.90
57664;DHT22;43493;53.098;6.064;2023-06-26T03:53:01;22.10;99.90
57664;DHT22;43493;53.098;6.064;2023-06-26T03:55:26;22.10;99.90
57664;DHT22;43493;53.098;6.064;2023-06-26T03:57:52;22.10;99.90
57664;DHT22;43493;53.098;6.064;2023-06-26T04:00:18;22.00;99.90
57664;DHT22;43493;53.098;6.064;2023-06-26T04:02:44;21.90;99.90
57664;DHT22;43493;53.098;6.064;2023-06-26T04:05:09;22.00;99.90
57664;DHT22;43493;53.098;6.064;2023-06-26T04:07:36;21.90;99.90
57664;DHT22;43493;53.098;6.064;2023-06-26T04:10:02;21.90;99.90
57664;DHT22;43493;53.098;6.064;2023-06-26T04:12:31;21.90;99.90
57664;DHT22;43493;53.098;6.064;2023-06-26T04:14:57;21.90;99.90
57664;DHT22;43493;53.098;6.064;2023-06-26T04:17:22;21.90;99.90
57664;DHT22;43493;53.098;6.064;2023-06-26T04:19:48;21.90;99.90
57664;DHT22;43493;53.098;6.064;2023-06-26T04:22:14;21.80;99.90
57664;DHT22;43493;53.098;6.064;2023-06-26T04:24:40;21.90;99.90
57664;DHT22;43493;53.098;6.064;2023-06-26T04:27:06;21.80;99.90
57664;DHT22;43493;53.098;6.064;2023-06-26T04:29:31;21.90;99.90
57664;DHT22;43493;53.098;6.064;2023-06-26T04:31:57;21.90;99.90
57664;DHT22;43493;53.098;6.064;2023-06-26T04:34:29;21.90;99.90
57664;DHT22;43493;53.098;6.064;2023-06-26T04:37:00;21.90;99.90
57664;DHT22;43493;53.098;6.064;2023-06-26T04:39:27;21.90;99.90
57664;DHT22;43493;53.098;6.064;2023-06-26T04:41:53;21.90;99.90
57664;DHT22;43493;53.098;6.064;2023-06-26T04:44:18;21.80;99.90
57664;DHT22;43493;53.098;6.064;2023-06-26T04:46:44;21.80;99.90
57664;DHT22;43493;53.098;6.064;2023-06-26T04:49:10;21.80;99.90
57664;DHT22;43493;53.098;6.064;2023-06-26T04:51:36;21.70;99.90
57664;DHT22;43493;53.098;6.064;2023-06-26T04:54:09;21.70;99.90
57664;DHT22;43493;53.098;6.064;2023-06-26T04:56:36;21.70;99.90
57664;DHT22;43493;53.098;6.064;2023-06-26T04:59:02;21.60;99.90
57664;DHT22;43493;53.098;6.064;2023-06-26T05:01:29;21.60;99.90
57664;DHT22;43493;53.098;6.064;2023-06-26T05:03:58;21.60;99.90
57664;DHT22;43493;53.098;6.064;2023-06-26T05:06:24;21.50;99.90
57664;DHT22;43493;53.098;6.064;2023-06-26T05:08:50;21.30;99.90
57664;DHT22;43493;53.098;6.064;2023-06-26T05:11:16;21.30;99.90
57664;DHT22;43493;53.098;6.064;2023-06-26T05:13:42;21.10;99.90
57664;DHT22;43493;53.098;6.064;2023-06-26T05:16:08;21.10;99.90
57664;DHT22;43493;53.098;6.064;2023-06-26T05:18:35;21.10;99.90
57664;DHT22;43493;53.098;6.064;2023-06-26T05:21:01;21.10;99.90
57664;DHT22;43493;53.098;6.064;2023-06-26T05:23:27;21.20;99.90
57664;DHT22;43493;53.098;6.064;2023-06-26T05:25:56;21.20;99.90
57664;DHT22;43493;53.098;6.064;2023-06-26T05:28:23;21.30;99.90
57664;DHT22;43493;53.098;6.064;2023-06-26T05:30:50;21.40;99.90
57664;DHT22;43493;53.098;6.064;2023-06-26T05:33:18;21.60;99.90
57664;DHT22;43493;53.098;6.064;2023-06-26T05:35:45;21.70;99.90
57664;DHT22;43493;53.098;6.064;2023-06-26T05:38:12;21.70;99.90
57664;DHT22;43493;53.098;6.064;2023-06-26T05:40:39;21.80;99.90
57664;DHT22;43493;53.098;6.064;2023-06-26T05:43:10;21.90;99.90
57664;DHT22;43493;53.098;6.064;2023-06-26T05:45:37;21.80;99.90
57664;DHT22;43493;53.098;6.064;2023-06-26T05:48:07;22.00;99.90
57664;DHT22;43493;53.098;6.064;2023-06-26T05:50:34;22.30;99.90
57664;DHT22;43493;53.098;6.064;2023-06-26T05:53:15;22.80;99.90
57664;DHT22;43493;53.098;6.064;2023-06-26T05:55:41;23.90;99.90
57664;DHT22;43493;53.098;6.064;2023-06-26T05:58:12;25.00;99.90
57664;DHT22;43493;53.098;6.064;2023-06-26T06:00:39;25.30;99.90
57664;DHT22;43493;53.098;6.064;2023-06-26T06:03:06;25.80;99.90
57664;DHT22;43493;53.098;6.064;2023-06-26T06:05:32;26.50;99.90
57664;DHT22;43493;53.098;6.064;2023-06-26T06:07:58;27.40;99.90
57664;DHT22;43493;53.098;6.064;2023-06-26T06:10:23;27.80;99.90
57664;DHT22;43493;53.098;6.064;2023-06-26T06:12:49;28.20;99.90
57664;DHT22;43493;53.098;6.064;2023-06-26T06:15:15;28.90;99.90
57664;DHT22;43493;53.098;6.064;2023-06-26T06:17:41;29.60;97.90
57664;DHT22;43493;53.098;6.064;2023-06-26T06:20:07;30.30;93.20
57664;DHT22;43493;53.098;6.064;2023-06-26T06:22:39;30.90;87.00
57664;DHT22;43493;53.098;6.064;2023-06-26T06:25:05;31.40;77.60
57664;DHT22;43493;53.098;6.064;2023-06-26T06:27:30;31.80;68.60
57664;DHT22;43493;53.098;6.064;2023-06-26T06:29:56;32.20;61.60
57664;DHT22;43493;53.098;6.064;2023-06-26T06:32:22;32.50;59.30
57664;DHT22;43493;53.098;6.064;2023-06-26T06:34:48;32.60;56.10
57664;DHT22;43493;53.098;6.064;2023-06-26T06:37:15;32.90;55.00
57664;DHT22;43493;53.098;6.064;2023-06-26T06:39:40;33.40;53.50
57664;DHT22;43493;53.098;6.064;2023-06-26T06:42:06;34.00;52.00
57664;DHT22;43493;53.098;6.064;2023-06-26T06:44:32;34.30;50.10
57664;DHT22;43493;53.098;6.064;2023-06-26T06:46:58;34.40;48.80
57664;DHT22;43493;53.098;6.064;2023-06-26T06:49:27;34.80;48.00
57664;DHT22;43493;53.098;6.064;2023-06-26T06:51:52;35.00;47.80
57664;DHT22;43493;53.098;6.064;2023-06-26T06:54:18;34.90;45.90
57664;DHT22;43493;53.098;6.064;2023-06-26T06:56:45;33.70;46.20
57664;DHT22;43493;53.098;6.064;2023-06-26T06:59:10;33.10;47.00
57664;DHT22;43493;53.098;6.064;2023-06-26T07:01:36;32.70;47.60
57664;DHT22;43493;53.098;6.064;2023-06-26T07:04:02;32.90;48.10
57664;DHT22;43493;53.098;6.064;2023-06-26T07:06:29;33.40;47.10
57664;DHT22;43493;53.098;6.064;2023-06-26T07:08:55;33.90;46.80
57664;DHT22;43493;53.098;6.064;2023-06-26T07:11:21;34.40;45.70
57664;DHT22;43493;53.098;6.064;2023-06-26T07:13:47;34.90;45.30
57664;DHT22;43493;53.098;6.064;2023-06-26T07:16:13;35.50;44.30
57664;DHT22;43493;53.098;6.064;2023-06-26T07:18:40;35.90;43.10
57664;DHT22;43493;53.098;6.064;2023-06-26T07:21:06;35.70;42.20
57664;DHT22;43493;53.098;6.064;2023-06-26T07:23:31;35.40;42.50
57664;DHT22;43493;53.098;6.064;2023-06-26T07:25:58;35.00;42.20
57664;DHT22;43493;53.098;6.064;2023-06-26T07:28:24;34.60;42.70
57664;DHT22;43493;53.098;6.064;2023-06-26T07:30:50;34.00;42.70
57664;DHT22;43493;53.098;6.064;2023-06-26T07:33:16;34.00;43.30
57664;DHT22;43493;53.098;6.064;2023-06-26T07:35:45;33.70;43.40
57664;DHT22;43493;53.098;6.064;2023-06-26T07:38:11;33.70;43.80
57664;DHT22;43493;53.098;6.064;2023-06-26T07:40:36;34.00;44.00
57664;DHT22;43493;53.098;6.064;2023-06-26T07:43:02;34.80;43.30
57664;DHT22;43493;53.098;6.064;2023-06-26T07:45:28;35.30;42.40
57664;DHT22;43493;53.098;6.064;2023-06-26T07:47:54;35.80;41.50
57664;DHT22;43493;53.098;6.064;2023-06-26T07:50:20;35.40;40.60
57664;DHT22;43493;53.098;6.064;2023-06-26T07:52:48;34.60;41.50
57664;DHT22;43493;53.098;6.064;2023-06-26T07:55:14;33.50;42.70
57664;DHT22;43493;53.098;6.064;2023-06-26T07:57:40;32.60;44.00
57664;DHT22;43493;53.098;6.064;2023-06-26T08:00:06;32.30;45.00
57664;DHT22;43493;53.098;6.064;2023-06-26T08:02:32;32.20;45.10
57664;DHT22;43493;53.098;6.064;2023-06-26T08:04:58;32.10;45.30
57664;DHT22;43493;53.098;6.064;2023-06-26T08:07:23;31.80;45.40
57664;DHT22;43493;53.098;6.064;2023-06-26T08:09:49;31.40;45.90
57664;DHT22;43493;53.098;6.064;2023-06-26T08:12:15;30.80;46.30
57664;DHT22;43493;53.098;6.064;2023-06-26T08:14:41;30.70;47.50
57664;DHT22;43493;53.098;6.064;2023-06-26T08:17:06;31.30;47.30
57664;DHT22;43493;53.098;6.064;2023-06-26T08:19:35;32.10;46.30
57664;DHT22;43493;53.098;6.064;2023-06-26T08:22:01;32.00;45.60
57664;DHT22;43493;53.098;6.064;2023-06-26T08:24:26;32.30;46.00
57664;DHT22;43493;53.098;6.064;2023-06-26T08:26:58;32.70;45.60
57664;DHT22;43493;53.098;6.064;2023-06-26T08:29:24;32.90;45.30
57664;DHT22;43493;53.098;6.064;2023-06-26T08:31:50;32.40;44.60
57664;DHT22;43493;53.098;6.064;2023-06-26T08:34:15;31.60;45.10
57664;DHT22;43493;53.098;6.064;2023-06-26T08:36:41;31.10;46.10
57664;DHT22;43493;53.098;6.064;2023-06-26T08:39:07;30.80;46.50
57664;DHT22;43493;53.098;6.064;2023-06-26T08:41:34;30.30;47.40
57664;DHT22;43493;53.098;6.064;2023-06-26T08:44:00;29.90;47.80
57664;DHT22;43493;53.098;6.064;2023-06-26T08:46:26;29.70;48.30
57664;DHT22;43493;53.098;6.064;2023-06-26T08:49:01;29.60;48.80
57664;DHT22;43493;53.098;6.064;2023-06-26T08:51:31;29.60;49.40
57664;DHT22;43493;53.098;6.064;2023-06-26T08:54:00;29.20;49.60
57664;DHT22;43493;53.098;6.064;2023-06-26T08:56:32;28.80;49.80
57664;DHT22;43493;53.098;6.064;2023-06-26T08:59:00;28.70;51.50
57664;DHT22;43493;53.098;6.064;2023-06-26T09:01:27;28.60;51.30
57664;DHT22;43493;53.098;6.064;2023-06-26T09:03:53;28.40;51.00
57664;DHT22;43493;53.098;6.064;2023-06-26T09:06:18;28.10;51.70
57664;DHT22;43493;53.098;6.064;2023-06-26T09:08:44;27.90;51.40
57664;DHT22;43493;53.098;6.064;2023-06-26T09:11:10;27.80;52.60
57664;DHT22;43493;53.098;6.064;2023-06-26T09:13:36;28.00;52.80
57664;DHT22;43493;53.098;6.064;2023-06-26T09:16:08;27.90;53.10
57664;DHT22;43493;53.098;6.064;2023-06-26T09:18:34;27.60;54.20
57664;DHT22;43493;53.098;6.064;2023-06-26T09:21:07;27.30;53.90
57664;DHT22;43493;53.098;6.064;2023-06-26T09:23:34;27.20;55.00
57664;DHT22;43493;53.098;6.064;2023-06-26T09:26:05;27.10;56.40
57664;DHT22;43493;53.098;6.064;2023-06-26T09:28:32;27.10;57.30
57664;DHT22;43493;53.098;6.064;2023-06-26T09:31:06;27.20;57.00
57664;DHT22;43493;53.098;6.064;2023-06-26T09:33:36;27.20;57.20
57664;DHT22;43493;53.098;6.064;2023-06-26T09:36:08;27.10;57.70
57664;DHT22;43493;53.098;6.064;2023-06-26T09:38:35;27.00;57.60
57664;DHT22;43493;53.098;6.064;2023-06-26T09:41:05;26.90;58.10
57664;DHT22;43493;53.098;6.064;2023-06-26T09:43:31;27.00;58.60
57664;DHT22;43493;53.098;6.064;2023-06-26T09:45:57;27.00;59.30
57664;DHT22;43493;53.098;6.064;2023-06-26T09:48:24;26.90;59.40
57664;DHT22;43493;53.098;6.064;2023-06-26T09:50:49;26.70;59.30
57664;DHT22;43493;53.098;6.064;2023-06-26T09:53:15;26.70;60.40
57664;DHT22;43493;53.098;6.064;2023-06-26T09:55:41;26.80;60.10
57664;DHT22;43493;53.098;6.064;2023-06-26T09:58:11;26.80;60.10
57664;DHT22;43493;53.098;6.064;2023-06-26T10:00:43;26.70;59.90
57664;DHT22;43493;53.098;6.064;2023-06-26T10:03:12;26.60;60.20
57664;DHT22;43493;53.098;6.064;2023-06-26T10:05:41;26.60;60.30
57664;DHT22;43493;53.098;6.064;2023-06-26T10:08:08;26.60;62.00
57664;DHT22;43493;53.098;6.064;2023-06-26T10:10:36;26.60;61.90
57664;DHT22;43493;53.098;6.064;2023-06-26T10:13:16;26.60;62.20
57664;DHT22;43493;53.098;6.064;2023-06-26T10:15:44;26.70;61.60
57664;DHT22;43493;53.098;6.064;2023-06-26T10:18:12;26.70;61.20
57664;DHT22;43493;53.098;6.064;2023-06-26T10:20:39;26.50;59.30
57664;DHT22;43493;53.098;6.064;2023-06-26T10:23:07;26.30;59.50
57664;DHT22;43493;53.098;6.064;2023-06-26T10:25:37;26.10;60.10
57664;DHT22;43493;53.098;6.064;2023-06-26T10:28:08;26.00;61.20
57664;DHT22;43493;53.098;6.064;2023-06-26T10:30:35;25.90;62.40
57664;DHT22;43493;53.098;6.064;2023-06-26T10:33:02;25.90;63.90
57664;DHT22;43493;53.098;6.064;2023-06-26T10:35:30;25.80;64.80
57664;DHT22;43493;53.098;6.064;2023-06-26T10:38:03;25.60;64.70
57664;DHT22;43493;53.098;6.064;2023-06-26T10:40:40;25.60;65.00
57664;DHT22;43493;53.098;6.064;2023-06-26T10:43:08;25.40;65.30
57664;DHT22;43493;53.098;6.064;2023-06-26T10:45:34;25.30;66.40
57664;DHT22;43493;53.098;6.064;2023-06-26T10:48:03;25.30;67.00
57664;DHT22;43493;53.098;6.064;2023-06-26T10:50:33;25.20;67.90
57664;DHT22;43493;53.098;6.064;2023-06-26T10:53:10;25.10;68.90
57664;DHT22;43493;53.098;6.064;2023-06-26T10:55:37;25.10;70.20
57664;DHT22;43493;53.098;6.064;2023-06-26T10:58:47;25.10;71.30
57664;DHT22;43493;53.098;6.064;2023-06-26T11:01:19;25.20;72.80
57664;DHT22;43493;53.098;6.064;2023-06-26T11:03:49;25.30;71.80
57664;DHT22;43493;53.098;6.064;2023-06-26T11:06:22;25.40;71.40
57664;DHT22;43493;53.098;6.064;2023-06-26T11:08:52;25.50;70.40
57664;DHT22;43493;53.098;6.064;2023-06-26T11:11:22;25.40;67.90
57664;DHT22;43493;53.098;6.064;2023-06-26T11:14:07;25.20;68.50
57664;DHT22;43493;53.098;6.064;2023-06-26T11:16:34;25.10;69.50
57664;DHT22;43493;53.098;6.064;2023-06-26T11:19:00;24.90;68.00
57664;DHT22;43493;53.098;6.064;2023-06-26T11:21:26;24.80;65.90
57664;DHT22;43493;53.098;6.064;2023-06-26T11:23:53;24.70;64.80
57664;DHT22;43493;53.098;6.064;2023-06-26T11:26:23;24.70;65.50
57664;DHT22;43493;53.098;6.064;2023-06-26T11:28:51;24.80;65.00
57664;DHT22;43493;53.098;6.064;2023-06-26T11:34:00;24.70;64.50
57664;DHT22;43493;53.098;6.064;2023-06-26T11:36:29;24.70;63.80
57664;DHT22;43493;53.098;6.064;2023-06-26T11:38:56;24.80;64.90
57664;DHT22;43493;53.098;6.064;2023-06-26T11:41:23;24.80;64.70
57664;DHT22;43493;53.098;6.064;2023-06-26T11:43:49;24.80;64.90
57664;DHT22;43493;53.098;6.064;2023-06-26T11:46:17;24.70;64.90
57664;DHT22;43493;53.098;6.064;2023-06-26T11:48:43;24.60;65.70
57664;DHT22;43493;53.098;6.064;2023-06-26T11:51:12;24.50;66.00
57664;DHT22;43493;53.098;6.064;2023-06-26T11:53:41;24.50;66.50
57664;DHT22;43493;53.098;6.064;2023-06-26T11:56:12;24.40;67.10
57664;DHT22;43493;53.098;6.064;2023-06-26T12:01:44;24.40;68.00
57664;DHT22;43493;53.098;6.064;2023-06-26T12:04:14;24.40;67.00
57664;DHT22;43493;53.098;6.064;2023-06-26T12:06:47;24.40;65.50
57664;DHT22;43493;53.098;6.064;2023-06-26T12:09:14;24.40;66.80
57664;DHT22;43493;53.098;6.064;2023-06-26T12:11:43;24.40;69.20
57664;DHT22;43493;53.098;6.064;2023-06-26T12:14:10;24.40;70.60
57664;DHT22;43493;53.098;6.064;2023-06-26T12:16:37;24.50;69.40
57664;DHT22;43493;53.098;6.064;2023-06-26T12:19:05;24.40;69.30
57664;DHT22;43493;53.098;6.064;2023-06-26T12:24:04;24.30;70.50
57664;DHT22;43493;53.098;6.064;2023-06-26T12:26:31;24.20;69.30
57664;DHT22;43493;53.098;6.064;2023-06-26T12:29:09;24.10;69.10
57664;DHT22;43493;53.098;6.064;2023-06-26T12:31:46;24.00;70.10
57664;DHT22;43493;53.098;6.064;2023-06-26T12:34:15;24.00;70.30
57664;DHT22;43493;53.098;6.064;2023-06-26T12:36:52;24.00;72.00
57664;DHT22;43493;53.098;6.064;2023-06-26T12:39:21;24.20;74.40
57664;DHT22;43493;53.098;6.064;2023-06-26T12:41:55;24.20;73.20
57664;DHT22;43493;53.098;6.064;2023-06-26T12:44:25;24.30;76.00
57664;DHT22;43493;53.098;6.064;2023-06-26T12:46:58;24.30;74.60
57664;DHT22;43493;53.098;6.064;2023-06-26T12:49:34;24.30;75.20
57664;DHT22;43493;53.098;6.064;2023-06-26T12:52:03;24.30;77.60
57664;DHT22;43493;53.098;6.064;2023-06-26T12:54:29;24.20;76.70
57664;DHT22;43493;53.098;6.064;2023-06-26T12:56:55;24.10;76.30
57664;DHT22;43493;53.098;6.064;2023-06-26T12:59:21;24.20;76.10
57664;DHT22;43493;53.098;6.064;2023-06-26T13:01:47;24.10;77.40
57664;DHT22;43493;53.098;6.064;2023-06-26T13:04:14;24.00;78.60
57664;DHT22;43493;53.098;6.064;2023-06-26T13:06:39;24.00;81.10
57664;DHT22;43493;53.098;6.064;2023-06-26T13:09:05;24.00;81.30
57664;DHT22;43493;53.098;6.064;2023-06-26T13:11:32;23.90;81.30
57664;DHT22;43493;53.098;6.064;2023-06-26T13:13:58;23.80;82.30
57664;DHT22;43493;53.098;6.064;2023-06-26T13:16:25;23.70;81.90
57664;DHT22;43493;53.098;6.064;2023-06-26T13:18:51;23.70;79.20
57664;DHT22;43493;53.098;6.064;2023-06-26T13:21:16;23.70;78.30
57664;DHT22;43493;53.098;6.064;2023-06-26T13:23:43;23.80;79.50
57664;DHT22;43493;53.098;6.064;2023-06-26T13:26:10;23.70;79.40
57664;DHT22;43493;53.098;6.064;2023-06-26T13:28:36;23.70;79.40
57664;DHT22;43493;53.098;6.064;2023-06-26T13:31:02;23.60;80.10
57664;DHT22;43493;53.098;6.064;2023-06-26T13:33:29;23.50;81.50
57664;DHT22;43493;53.098;6.064;2023-06-26T13:35:55;23.60;82.60
57664;DHT22;43493;53.098;6.064;2023-06-26T13:38:21;23.50;83.90
57664;DHT22;43493;53.098;6.064;2023-06-26T13:40:53;23.70;84.60
57664;DHT22;43493;53.098;6.064;2023-06-26T13:43:21;23.80;81.90
57664;DHT22;43493;53.098;6.064;2023-06-26T13:45:48;23.80;80.20
57664;DHT22;43493;53.098;6.064;2023-06-26T13:48:14;23.70;78.40
57664;DHT22;43493;53.098;6.064;2023-06-26T13:50:40;23.70;79.10
57664;DHT22;43493;53.098;6.064;2023-06-26T13:53:05;23.70;78.30
57664;DHT22;43493;53.098;6.064;2023-06-26T13:55:32;23.70;76.60
57664;DHT22;43493;53.098;6.064;2023-06-26T13:57:58;23.70;76.20
57664;DHT22;43493;53.098;6.064;2023-06-26T14:00:24;23.70;73.50
57664;DHT22;43493;53.098;6.064;2023-06-26T14:02:51;23.70;74.70
57664;DHT22;43493;53.098;6.064;2023-06-26T14:05:17;23.70;74.60
57664;DHT22;43493;53.098;6.064;2023-06-26T14:07:47;23.60;75.60
57664;DHT22;43493;53.098;6.064;2023-06-26T14:10:12;23.70;77.60
57664;DHT22;43493;53.098;6.064;2023-06-26T14:12:40;23.70;78.20
57664;DHT22;43493;53.098;6.064;2023-06-26T14:15:06;23.70;80.00
57664;DHT22;43493;53.098;6.064;2023-06-26T14:17:32;23.70;80.40
57664;DHT22;43493;53.098;6.064;2023-06-26T14:19:58;23.60;81.80
57664;DHT22;43493;53.098;6.064;2023-06-26T14:22:25;23.50;82.20
57664;DHT22;43493;53.098;6.064;2023-06-26T14:24:50;23.40;84.70
57664;DHT22;43493;53.098;6.064;2023-06-26T14:27:16;23.40;85.90
57664;DHT22;43493;53.098;6.064;2023-06-26T14:29:42;23.40;85.90
57664;DHT22;43493;53.098;6.064;2023-06-26T14:32:07;23.40;83.40
57664;DHT22;43493;53.098;6.064;2023-06-26T14:34:33;23.50;82.70
57664;DHT22;43493;53.098;6.064;2023-06-26T14:36:59;23.50;82.90
57664;DHT22;43493;53.098;6.064;2023-06-26T14:39:25;23.60;84.40
57664;DHT22;43493;53.098;6.064;2023-06-26T14:41:51;23.70;84.70
57664;DHT22;43493;53.098;6.064;2023-06-26T14:44:16;23.70;84.50
57664;DHT22;43493;53.098;6.064;2023-06-26T14:46:42;23.70;80.70
57664;DHT22;43493;53.098;6.064;2023-06-26T14:49:09;23.70;78.80
57664;DHT22;43493;53.098;6.064;2023-06-26T14:51:34;23.70;78.90
57664;DHT22;43493;53.098;6.064;2023-06-26T14:54:00;23.70;78.20
57664;DHT22;43493;53.098;6.064;2023-06-26T14:56:26;23.60;74.10
57664;DHT22;43493;53.098;6.064;2023-06-26T14:58:52;23.60;74.30
57664;DHT22;43493;53.098;6.064;2023-06-26T15:01:19;23.50;74.00
57664;DHT22;43493;53.098;6.064;2023-06-26T15:03:48;23.50;74.80
57664;DHT22;43493;53.098;6.064;2023-06-26T15:06:14;23.60;75.70
57664;DHT22;43493;53.098;6.064;2023-06-26T15:08:40;23.70;73.80
57664;DHT22;43493;53.098;6.064;2023-06-26T15:11:06;23.60;72.00
57664;DHT22;43493;53.098;6.064;2023-06-26T15:13:31;23.50;69.80
57664;DHT22;43493;53.098;6.064;2023-06-26T15:15:57;23.50;70.10
57664;DHT22;43493;53.098;6.064;2023-06-26T15:18:23;23.40;69.80
57664;DHT22;43493;53.098;6.064;2023-06-26T15:20:49;23.30;70.00
57664;DHT22;43493;53.098;6.064;2023-06-26T15:23:15;23.20;71.30
57664;DHT22;43493;53.098;6.064;2023-06-26T15:25:40;23.30;72.40
57664;DHT22;43493;53.098;6.064;2023-06-26T15:28:06;23.40;71.60
57664;DHT22;43493;53.098;6.064;2023-06-26T15:30:33;23.40;69.90
57664;DHT22;43493;53.098;6.064;2023-06-26T15:32:58;23.40;68.90
57664;DHT22;43493;53.098;6.064;2023-06-26T15:35:24;23.40;66.70
57664;DHT22;43493;53.098;6.064;2023-06-26T15:37:50;23.40;67.10
57664;DHT22;43493;53.098;6.064;2023-06-26T15:40:16;23.40;66.50
57664;DHT22;43493;53.098;6.064;2023-06-26T15:42:49;23.30;64.80